sensor_id;sensor_type;location;lat;lon;timestamp;P1;durP1;ratioP1;P2;durP2;ratioP2
211;SDS011;16228;48.800;9.002;2023-06-26T00:01:33;8.27;;;7.47;;
211;SDS011;16228;48.800;9.002;2023-06-26T00:04:00;7.70;;;6.90;;
211;SDS011;16228;48.800;9.002;2023-06-26T00:06:27;8.67;;;7.67;;
211;SDS011;16228;48.800;9.002;2023-06-26T00:08:55;10.03;;;8.43;;
211;SDS011;16228;48.800;9.002;2023-06-26T00:11:25;8.77;;;7.80;;
211;SDS011;16228;48.800;9.002;2023-06-26T00:13:52;8.20;;;7.20;;
211;SDS011;16228;48.800;9.002;2023-06-26T00:16:19;8.20;;;7.40;;
211;SDS011;16228;48.800;9.002;2023-06-26T00:18:47;8.60;;;7.73;;
211;SDS011;16228;48.800;9.002;2023-06-26T00:21:14;9.47;;;8.33;;
211;SDS011;16228;48.800;9.002;2023-06-26T00:23:41;9.87;;;8.80;;
211;SDS011;16228;48.800;9.002;2023-06-26T00:26:08;7.97;;;7.17;;
211;SDS011;16228;48.800;9.002;2023-06-26T00:28:37;9.23;;;8.23;;
211;SDS011;16228;48.800;9.002;2023-06-26T00:31:04;8.40;;;7.60;;
211;SDS011;16228;48.800;9.002;2023-06-26T00:33:31;10.00;;;9.00;;
211;SDS011;16228;48.800;9.002;2023-06-26T00:35:58;10.57;;;9.03;;
211;SDS011;16228;48.800;9.002;2023-06-26T00:38:26;9.47;;;8.30;;
211;SDS011;16228;48.800;9.002;2023-06-26T00:40:53;10.67;;;9.77;;
211;SDS011;16228;48.800;9.002;2023-06-26T00:43:21;8.77;;;7.87;;
211;SDS011;16228;48.800;9.002;2023-06-26T00:45:49;9.87;;;8.90;;
211;SDS011;16228;48.800;9.002;2023-06-26T00:48:17;8.80;;;7.90;;
211;SDS011;16228;48.800;9.002;2023-06-26T00:50:44;8.90;;;7.97;;
211;SDS011;16228;48.800;9.002;2023-06-26T00:53:11;9.17;;;8.33;;
211;SDS011;16228;48.800;9.002;2023-06-26T00:55:39;9.53;;;8.63;;
211;SDS011;16228;48.800;9.002;2023-06-26T00:58:06;9.70;;;8.63;;
211;SDS011;16228;48.800;9.002;2023-06-26T01:00:33;9.53;;;8.63;;
211;SDS011;16228;48.800;9.002;2023-06-26T01:03:02;8.33;;;7.53;;
211;SDS011;16228;48.800;9.002;2023-06-26T01:05:29;9.47;;;8.57;;
211;SDS011;16228;48.800;9.002;2023-06-26T01:07:57;9.43;;;8.47;;
211;SDS011;16228;48.800;9.002;2023-06-26T01:10:24;10.73;;;9.27;;
211;SDS011;16228;48.800;9.002;2023-06-26T01:12:54;9.60;;;8.60;;
211;SDS011;16228;48.800;9.002;2023-06-26T01:15:21;8.30;;;7.50;;
211;SDS011;16228;48.800;9.002;2023-06-26T01:17:49;8.83;;;8.03;;
211;SDS011;16228;48.800;9.002;2023-06-26T01:20:18;8.73;;;7.83;;
211;SDS011;16228;48.800;9.002;2023-06-26T01:22:48;9.50;;;8.57;;
211;SDS011;16228;48.800;9.002;2023-06-26T01:25:32;8.97;;;7.97;;
211;SDS011;16228;48.800;9.002;2023-06-26T01:28:07;11.00;;;9.17;;
211;SDS011;16228;48.800;9.002;2023-06-26T01:30:35;9.77;;;8.50;;
211;SDS011;16228;48.800;9.002;2023-06-26T01:33:05;9.20;;;8.37;;
211;SDS011;16228;48.800;9.002;2023-06-26T01:35:32;9.37;;;8.33;;
211;SDS011;16228;48.800;9.002;2023-06-26T01:38:13;9.93;;;8.93;;
211;SDS011;16228;48.800;9.002;2023-06-26T01:40:41;8.93;;;7.80;;
211;SDS011;16228;48.800;9.002;2023-06-26T01:43:13;9.73;;;8.83;;
211;SDS011;16228;48.800;9.002;2023-06-26T01:45:46;11.50;;;8.40;;
211;SDS011;16228;48.800;9.002;2023-06-26T01:48:16;9.43;;;8.53;;
211;SDS011;16228;48.800;9.002;2023-06-26T01:50:49;9.20;;;8.30;;
211;SDS011;16228;48.800;9.002;2023-06-26T01:53:19;9.53;;;8.23;;
211;SDS011;16228;48.800;9.002;2023-06-26T01:55:51;10.30;;;8.83;;
211;SDS011;16228;48.800;9.002;2023-06-26T01:58:22;8.87;;;8.00;;
211;SDS011;16228;48.800;9.002;2023-06-26T02:00:50;9.37;;;8.03;;
211;SDS011;16228;48.800;9.002;2023-06-26T02:03:18;8.53;;;7.73;;
211;SDS011;16228;48.800;9.002;2023-06-26T02:05:45;9.97;;;8.97;;
211;SDS011;16228;48.800;9.002;2023-06-26T02:08:13;9.10;;;8.17;;
211;SDS011;16228;48.800;9.002;2023-06-26T02:10:41;9.73;;;8.73;;
211;SDS011;16228;48.800;9.002;2023-06-26T02:13:08;9.17;;;8.20;;
211;SDS011;16228;48.800;9.002;2023-06-26T02:15:37;10.03;;;9.03;;
211;SDS011;16228;48.800;9.002;2023-06-26T02:18:05;8.93;;;8.03;;
211;SDS011;16228;48.800;9.002;2023-06-26T02:20:32;9.20;;;8.20;;
211;SDS011;16228;48.800;9.002;2023-06-26T02:22:59;9.07;;;8.20;;
211;SDS011;16228;48.800;9.002;2023-06-26T02:25:27;8.67;;;7.90;;
211;SDS011;16228;48.800;9.002;2023-06-26T02:27:54;8.03;;;7.33;;
211;SDS011;16228;48.800;9.002;2023-06-26T02:30:21;10.03;;;8.47;;
211;SDS011;16228;48.800;9.002;2023-06-26T02:32:49;9.20;;;8.17;;
211;SDS011;16228;48.800;9.002;2023-06-26T02:35:17;9.10;;;8.30;;
211;SDS011;16228;48.800;9.002;2023-06-26T02:37:44;10.33;;;9.33;;
211;SDS011;16228;48.800;9.002;2023-06-26T02:40:11;9.57;;;8.63;;
211;SDS011;16228;48.800;9.002;2023-06-26T02:42:38;10.27;;;9.27;;
211;SDS011;16228;48.800;9.002;2023-06-26T02:45:06;10.27;;;9.27;;
211;SDS011;16228;48.800;9.002;2023-06-26T02:47:34;8.50;;;7.70;;
211;SDS011;16228;48.800;9.002;2023-06-26T02:50:06;8.57;;;7.77;;
211;SDS011;16228;48.800;9.002;2023-06-26T02:52:34;8.93;;;8.07;;
211;SDS011;16228;48.800;9.002;2023-06-26T02:55:01;9.80;;;8.80;;
211;SDS011;16228;48.800;9.002;2023-06-26T02:57:28;8.33;;;7.20;;
211;SDS011;16228;48.800;9.002;2023-06-26T02:59:55;8.87;;;8.00;;
211;SDS011;16228;48.800;9.002;2023-06-26T03:02:23;9.73;;;8.83;;
211;SDS011;16228;48.800;9.002;2023-06-26T03:04:50;8.87;;;8.07;;
211;SDS011;16228;48.800;9.002;2023-06-26T03:07:19;9.40;;;8.50;;
211;SDS011;16228;48.800;9.002;2023-06-26T03:09:46;9.27;;;8.33;;
211;SDS011;16228;48.800;9.002;2023-06-26T03:12:13;10.53;;;9.60;;
211;SDS011;16228;48.800;9.002;2023-06-26T03:14:40;8.43;;;7.53;;
211;SDS011;16228;48.800;9.002;2023-06-26T03:17:08;9.23;;;8.30;;
211;SDS011;16228;48.800;9.002;2023-06-26T03:19:35;8.93;;;8.07;;
211;SDS011;16228;48.800;9.002;2023-06-26T03:22:02;10.07;;;8.03;;
211;SDS011;16228;48.800;9.002;2023-06-26T03:24:31;8.70;;;7.90;;
211;SDS011;16228;48.800;9.002;2023-06-26T03:26:59;9.10;;;8.20;;
211;SDS011;16228;48.800;9.002;2023-06-26T03:29:26;10.30;;;9.37;;
211;SDS011;16228;48.800;9.002;2023-06-26T03:31:55;10.90;;;9.83;;
211;SDS011;16228;48.800;9.002;2023-06-26T03:34:22;8.53;;;6.70;;
211;SDS011;16228;48.800;9.002;2023-06-26T03:36:49;7.90;;;7.20;;
211;SDS011;16228;48.800;9.002;2023-06-26T03:39:16;9.17;;;8.27;;
211;SDS011;16228;48.800;9.002;2023-06-26T03:41:45;9.37;;;7.83;;
211;SDS011;16228;48.800;9.002;2023-06-26T03:44:12;9.33;;;8.43;;
211;SDS011;16228;48.800;9.002;2023-06-26T03:46:39;8.57;;;7.77;;
211;SDS011;16228;48.800;9.002;2023-06-26T03:49:06;10.57;;;9.47;;
211;SDS011;16228;48.800;9.002;2023-06-26T03:51:33;8.27;;;7.47;;
211;SDS011;16228;48.800;9.002;2023-06-26T03:54:00;9.27;;;8.37;;
211;SDS011;16228;48.800;9.002;2023-06-26T03:56:28;8.57;;;7.77;;
211;SDS011;16228;48.800;9.002;2023-06-26T03:58:56;8.83;;;7.93;;
211;SDS011;16228;48.800;9.002;2023-06-26T04:01:23;9.10;;;8.20;;
211;SDS011;16228;48.800;9.002;2023-06-26T04:03:51;8.40;;;7.60;;
211;SDS011;16228;48.800;9.002;2023-06-26T04:06:18;9.03;;;7.97;;
211;SDS011;16228;48.800;9.002;2023-06-26T04:08:45;8.97;;;8.17;;
211;SDS011;16228;48.800;9.002;2023-06-26T04:11:13;9.07;;;8.17;;
211;SDS011;16228;48.800;9.002;2023-06-26T04:13:40;10.03;;;9.03;;
211;SDS011;16228;48.800;9.002;2023-06-26T04:16:08;9.50;;;8.50;;
211;SDS011;16228;48.800;9.002;2023-06-26T04:18:36;8.90;;;8.00;;
211;SDS011;16228;48.800;9.002;2023-06-26T04:21:04;8.77;;;7.97;;
211;SDS011;16228;48.800;9.002;2023-06-26T04:23:34;9.43;;;8.53;;
211;SDS011;16228;48.800;9.002;2023-06-26T04:26:01;8.60;;;7.80;;
211;SDS011;16228;48.800;9.002;2023-06-26T04:28:30;8.70;;;7.90;;
211;SDS011;16228;48.800;9.002;2023-06-26T04:30:57;9.00;;;8.10;;
211;SDS011;16228;48.800;9.002;2023-06-26T04:33:26;8.90;;;8.10;;
211;SDS011;16228;48.800;9.002;2023-06-26T04:35:53;8.77;;;7.90;;
211;SDS011;16228;48.800;9.002;2023-06-26T04:38:21;9.60;;;8.70;;
211;SDS011;16228;48.800;9.002;2023-06-26T04:40:48;8.67;;;7.87;;
211;SDS011;16228;48.800;9.002;2023-06-26T04:43:15;8.90;;;8.00;;
211;SDS011;16228;48.800;9.002;2023-06-26T04:45:42;9.93;;;7.77;;
211;SDS011;16228;48.800;9.002;2023-06-26T04:48:10;8.37;;;7.53;;
211;SDS011;16228;48.800;9.002;2023-06-26T04:50:39;8.17;;;7.37;;
211;SDS011;16228;48.800;9.002;2023-06-26T04:53:06;9.73;;;7.30;;
211;SDS011;16228;48.800;9.002;2023-06-26T04:55:35;8.87;;;7.53;;
211;SDS011;16228;48.800;9.002;2023-06-26T04:58:02;10.30;;;7.40;;
211;SDS011;16228;48.800;9.002;2023-06-26T05:00:29;12.77;;;7.73;;
211;SDS011;16228;48.800;9.002;2023-06-26T05:02:57;10.80;;;7.73;;
211;SDS011;16228;48.800;9.002;2023-06-26T05:05:25;14.23;;;7.40;;
211;SDS011;16228;48.800;9.002;2023-06-26T05:07:55;11.43;;;7.53;;
211;SDS011;16228;48.800;9.002;2023-06-26T05:10:22;10.30;;;7.13;;
211;SDS011;16228;48.800;9.002;2023-06-26T05:12:50;9.20;;;6.57;;
211;SDS011;16228;48.800;9.002;2023-06-26T05:15:17;10.53;;;7.37;;
211;SDS011;16228;48.800;9.002;2023-06-26T05:17:44;7.13;;;6.43;;
211;SDS011;16228;48.800;9.002;2023-06-26T05:20:11;9.57;;;6.73;;
211;SDS011;16228;48.800;9.002;2023-06-26T05:22:39;6.53;;;5.93;;
211;SDS011;16228;48.800;9.002;2023-06-26T05:25:09;5.90;;;5.30;;
211;SDS011;16228;48.800;9.002;2023-06-26T05:27:37;6.77;;;6.17;;
211;SDS011;16228;48.800;9.002;2023-06-26T05:30:05;6.27;;;5.37;;
211;SDS011;16228;48.800;9.002;2023-06-26T05:32:33;7.80;;;6.53;;
211;SDS011;16228;48.800;9.002;2023-06-26T05:35:02;7.60;;;6.83;;
211;SDS011;16228;48.800;9.002;2023-06-26T05:37:30;12.77;;;8.03;;
211;SDS011;16228;48.800;9.002;2023-06-26T05:39:59;6.57;;;5.83;;
211;SDS011;16228;48.800;9.002;2023-06-26T05:42:30;6.90;;;6.20;;
211;SDS011;16228;48.800;9.002;2023-06-26T05:44:57;6.83;;;6.13;;
211;SDS011;16228;48.800;9.002;2023-06-26T05:47:24;6.77;;;5.50;;
211;SDS011;16228;48.800;9.002;2023-06-26T05:49:51;8.83;;;6.10;;
211;SDS011;16228;48.800;9.002;2023-06-26T05:52:19;6.73;;;6.03;;
211;SDS011;16228;48.800;9.002;2023-06-26T05:54:47;9.37;;;6.07;;
211;SDS011;16228;48.800;9.002;2023-06-26T05:57:14;6.20;;;5.60;;
211;SDS011;16228;48.800;9.002;2023-06-26T05:59:44;5.53;;;5.03;;
211;SDS011;16228;48.800;9.002;2023-06-26T06:02:12;6.27;;;5.67;;
211;SDS011;16228;48.800;9.002;2023-06-26T06:04:40;5.90;;;5.30;;
211;SDS011;16228;48.800;9.002;2023-06-26T06:07:07;6.40;;;5.77;;
211;SDS011;16228;48.800;9.002;2023-06-26T06:09:34;5.87;;;5.37;;
211;SDS011;16228;48.800;9.002;2023-06-26T06:12:03;6.17;;;5.57;;
211;SDS011;16228;48.800;9.002;2023-06-26T06:14:31;6.10;;;5.50;;
211;SDS011;16228;48.800;9.002;2023-06-26T06:17:00;6.53;;;5.63;;
211;SDS011;16228;48.800;9.002;2023-06-26T06:19:27;5.70;;;5.13;;
211;SDS011;16228;48.800;9.002;2023-06-26T06:21:54;6.53;;;5.40;;
211;SDS011;16228;48.800;9.002;2023-06-26T06:24:21;5.57;;;5.07;;
211;SDS011;16228;48.800;9.002;2023-06-26T06:26:48;6.63;;;5.10;;
211;SDS011;16228;48.800;9.002;2023-06-26T06:29:15;5.80;;;4.80;;
211;SDS011;16228;48.800;9.002;2023-06-26T06:31:44;5.73;;;5.20;;
211;SDS011;16228;48.800;9.002;2023-06-26T06:34:13;5.80;;;5.30;;
211;SDS011;16228;48.800;9.002;2023-06-26T06:36:40;7.70;;;5.50;;
211;SDS011;16228;48.800;9.002;2023-06-26T06:39:07;6.07;;;5.47;;
211;SDS011;16228;48.800;9.002;2023-06-26T06:41:34;5.33;;;4.83;;
211;SDS011;16228;48.800;9.002;2023-06-26T06:44:02;5.00;;;4.60;;
211;SDS011;16228;48.800;9.002;2023-06-26T06:46:29;7.47;;;5.60;;
211;SDS011;16228;48.800;9.002;2023-06-26T06:48:56;6.17;;;5.40;;
211;SDS011;16228;48.800;9.002;2023-06-26T06:51:25;7.17;;;5.17;;
211;SDS011;16228;48.800;9.002;2023-06-26T06:53:52;5.17;;;4.67;;
211;SDS011;16228;48.800;9.002;2023-06-26T06:56:19;6.10;;;5.50;;
211;SDS011;16228;48.800;9.002;2023-06-26T06:58:46;5.75;;;4.45;;
211;SDS011;16228;48.800;9.002;2023-06-26T07:01:13;5.72;;;5.20;;
211;SDS011;16228;48.800;9.002;2023-06-26T07:03:40;5.70;;;5.15;;
211;SDS011;16228;48.800;9.002;2023-06-26T07:06:08;6.35;;;5.20;;
211;SDS011;16228;48.800;9.002;2023-06-26T07:08:36;5.47;;;4.75;;
211;SDS011;16228;48.800;9.002;2023-06-26T07:11:03;5.25;;;4.55;;
211;SDS011;16228;48.800;9.002;2023-06-26T07:13:31;5.97;;;4.82;;
211;SDS011;16228;48.800;9.002;2023-06-26T07:15:58;5.43;;;5.00;;
211;SDS011;16228;48.800;9.002;2023-06-26T07:18:25;5.05;;;4.65;;
211;SDS011;16228;48.800;9.002;2023-06-26T07:20:52;5.85;;;5.35;;
211;SDS011;16228;48.800;9.002;2023-06-26T07:23:19;5.05;;;4.65;;
211;SDS011;16228;48.800;9.002;2023-06-26T07:25:48;4.60;;;4.10;;
211;SDS011;16228;48.800;9.002;2023-06-26T07:28:15;4.65;;;3.92;;
211;SDS011;16228;48.800;9.002;2023-06-26T07:30:42;4.20;;;3.75;;
211;SDS011;16228;48.800;9.002;2023-06-26T07:33:09;3.97;;;3.55;;
211;SDS011;16228;48.800;9.002;2023-06-26T07:35:37;3.90;;;3.60;;
211;SDS011;16228;48.800;9.002;2023-06-26T07:38:04;4.00;;;3.70;;
211;SDS011;16228;48.800;9.002;2023-06-26T07:40:31;4.05;;;3.35;;
211;SDS011;16228;48.800;9.002;2023-06-26T07:43:00;4.05;;;3.60;;
211;SDS011;16228;48.800;9.002;2023-06-26T07:45:27;4.63;;;3.30;;
211;SDS011;16228;48.800;9.002;2023-06-26T07:47:54;3.60;;;3.30;;
211;SDS011;16228;48.800;9.002;2023-06-26T07:50:21;4.15;;;3.85;;
211;SDS011;16228;48.800;9.002;2023-06-26T07:52:49;4.10;;;3.80;;
211;SDS011;16228;48.800;9.002;2023-06-26T07:55:21;7.28;;;3.40;;
211;SDS011;16228;48.800;9.002;2023-06-26T07:57:48;3.35;;;3.15;;
211;SDS011;16228;48.800;9.002;2023-06-26T08:00:18;3.85;;;3.55;;
211;SDS011;16228;48.800;9.002;2023-06-26T08:02:46;3.55;;;3.35;;
211;SDS011;16228;48.800;9.002;2023-06-26T08:05:13;3.47;;;3.28;;
211;SDS011;16228;48.800;9.002;2023-06-26T08:07:40;4.40;;;4.00;;
211;SDS011;16228;48.800;9.002;2023-06-26T08:10:08;5.60;;;3.70;;
211;SDS011;16228;48.800;9.002;2023-06-26T08:12:35;5.22;;;3.83;;
211;SDS011;16228;48.800;9.002;2023-06-26T08:15:06;4.05;;;3.75;;
211;SDS011;16228;48.800;9.002;2023-06-26T08:17:35;4.63;;;3.88;;
211;SDS011;16228;48.800;9.002;2023-06-26T08:20:03;4.00;;;3.70;;
211;SDS011;16228;48.800;9.002;2023-06-26T08:22:33;3.88;;;3.58;;
211;SDS011;16228;48.800;9.002;2023-06-26T08:25:00;4.95;;;4.03;;
211;SDS011;16228;48.800;9.002;2023-06-26T08:27:28;4.00;;;3.67;;
211;SDS011;16228;48.800;9.002;2023-06-26T08:29:55;3.75;;;3.55;;
211;SDS011;16228;48.800;9.002;2023-06-26T08:32:22;4.07;;;3.78;;
211;SDS011;16228;48.800;9.002;2023-06-26T08:34:51;3.83;;;3.63;;
211;SDS011;16228;48.800;9.002;2023-06-26T08:37:19;4.05;;;3.75;;
211;SDS011;16228;48.800;9.002;2023-06-26T08:39:46;4.05;;;3.75;;
211;SDS011;16228;48.800;9.002;2023-06-26T08:42:14;3.83;;;3.47;;
211;SDS011;16228;48.800;9.002;2023-06-26T08:44:41;4.22;;;3.92;;
211;SDS011;16228;48.800;9.002;2023-06-26T08:47:09;4.13;;;3.83;;
211;SDS011;16228;48.800;9.002;2023-06-26T08:49:42;4.75;;;3.67;;
211;SDS011;16228;48.800;9.002;2023-06-26T08:52:19;3.63;;;3.42;;
211;SDS011;16228;48.800;9.002;2023-06-26T08:54:51;3.88;;;3.58;;
211;SDS011;16228;48.800;9.002;2023-06-26T08:57:31;4.13;;;3.83;;
211;SDS011;16228;48.800;9.002;2023-06-26T08:59:59;3.75;;;3.45;;
211;SDS011;16228;48.800;9.002;2023-06-26T09:02:27;4.07;;;3.78;;
211;SDS011;16228;48.800;9.002;2023-06-26T09:04:54;4.20;;;3.83;;
211;SDS011;16228;48.800;9.002;2023-06-26T09:07:23;4.30;;;4.00;;
211;SDS011;16228;48.800;9.002;2023-06-26T09:09:51;5.00;;;4.00;;
211;SDS011;16228;48.800;9.002;2023-06-26T09:12:18;3.75;;;3.53;;
211;SDS011;16228;48.800;9.002;2023-06-26T09:14:46;3.80;;;3.60;;
211;SDS011;16228;48.800;9.002;2023-06-26T09:17:14;4.50;;;4.20;;
211;SDS011;16228;48.800;9.002;2023-06-26T09:19:41;4.07;;;3.75;;
211;SDS011;16228;48.800;9.002;2023-06-26T09:22:11;4.63;;;4.22;;
211;SDS011;16228;48.800;9.002;2023-06-26T09:24:42;5.18;;;4.20;;
211;SDS011;16228;48.800;9.002;2023-06-26T09:27:10;4.50;;;4.13;;
211;SDS011;16228;48.800;9.002;2023-06-26T09:29:38;4.20;;;3.90;;
211;SDS011;16228;48.800;9.002;2023-06-26T09:32:07;8.52;;;4.85;;
211;SDS011;16228;48.800;9.002;2023-06-26T09:34:34;5.03;;;4.50;;
211;SDS011;16228;48.800;9.002;2023-06-26T09:37:01;4.65;;;4.20;;
211;SDS011;16228;48.800;9.002;2023-06-26T09:39:30;5.20;;;4.70;;
211;SDS011;16228;48.800;9.002;2023-06-26T09:41:59;4.65;;;4.35;;
211;SDS011;16228;48.800;9.002;2023-06-26T09:44:27;5.28;;;4.38;;
211;SDS011;16228;48.800;9.002;2023-06-26T09:46:57;4.88;;;4.57;;
211;SDS011;16228;48.800;9.002;2023-06-26T09:49:24;4.63;;;4.22;;
211;SDS011;16228;48.800;9.002;2023-06-26T09:51:52;5.15;;;4.85;;
211;SDS011;16228;48.800;9.002;2023-06-26T09:54:21;4.90;;;4.53;;
211;SDS011;16228;48.800;9.002;2023-06-26T09:56:48;4.32;;;4.03;;
211;SDS011;16228;48.800;9.002;2023-06-26T09:59:17;5.82;;;5.43;;
211;SDS011;16228;48.800;9.002;2023-06-26T10:01:45;4.80;;;4.50;;
211;SDS011;16228;48.800;9.002;2023-06-26T10:04:13;4.82;;;4.38;;
211;SDS011;16228;48.800;9.002;2023-06-26T10:06:41;5.10;;;4.70;;
211;SDS011;16228;48.800;9.002;2023-06-26T10:09:12;7.55;;;5.55;;
211;SDS011;16228;48.800;9.002;2023-06-26T10:11:45;6.57;;;4.97;;
211;SDS011;16228;48.800;9.002;2023-06-26T10:14:19;5.82;;;5.38;;
211;SDS011;16228;48.800;9.002;2023-06-26T10:16:48;6.95;;;6.30;;
211;SDS011;16228;48.800;9.002;2023-06-26T10:19:16;6.47;;;5.97;;
211;SDS011;16228;48.800;9.002;2023-06-26T10:21:50;5.93;;;4.60;;
211;SDS011;16228;48.800;9.002;2023-06-26T10:24:19;7.47;;;5.70;;
211;SDS011;16228;48.800;9.002;2023-06-26T10:26:47;5.85;;;5.32;;
211;SDS011;16228;48.800;9.002;2023-06-26T10:29:16;5.95;;;5.30;;
211;SDS011;16228;48.800;9.002;2023-06-26T10:31:49;5.07;;;4.63;;
211;SDS011;16228;48.800;9.002;2023-06-26T10:34:19;5.82;;;5.25;;
211;SDS011;16228;48.800;9.002;2023-06-26T10:36:47;6.35;;;5.85;;
211;SDS011;16228;48.800;9.002;2023-06-26T10:39:24;6.40;;;5.80;;
211;SDS011;16228;48.800;9.002;2023-06-26T10:41:54;7.82;;;5.32;;
211;SDS011;16228;48.800;9.002;2023-06-26T10:44:23;5.60;;;5.00;;
211;SDS011;16228;48.800;9.002;2023-06-26T10:46:50;5.85;;;5.35;;
211;SDS011;16228;48.800;9.002;2023-06-26T10:49:19;7.82;;;5.43;;
211;SDS011;16228;48.800;9.002;2023-06-26T10:51:47;6.70;;;6.18;;
211;SDS011;16228;48.800;9.002;2023-06-26T10:54:16;6.60;;;6.10;;
211;SDS011;16228;48.800;9.002;2023-06-26T10:56:44;6.75;;;6.07;;
211;SDS011;16228;48.800;9.002;2023-06-26T10:59:15;5.97;;;5.47;;
211;SDS011;16228;48.800;9.002;2023-06-26T11:01:45;6.43;;;5.05;;
211;SDS011;16228;48.800;9.002;2023-06-26T11:04:21;7.55;;;5.32;;
211;SDS011;16228;48.800;9.002;2023-06-26T11:07:14;7.30;;;6.38;;
211;SDS011;16228;48.800;9.002;2023-06-26T11:09:53;6.50;;;5.15;;
211;SDS011;16228;48.800;9.002;2023-06-26T11:12:34;6.80;;;5.88;;
211;SDS011;16228;48.800;9.002;2023-06-26T11:15:02;5.65;;;5.00;;
211;SDS011;16228;48.800;9.002;2023-06-26T11:17:31;6.88;;;5.25;;
211;SDS011;16228;48.800;9.002;2023-06-26T11:19:58;5.55;;;4.97;;
211;SDS011;16228;48.800;9.002;2023-06-26T11:22:27;5.75;;;5.18;;
211;SDS011;16228;48.800;9.002;2023-06-26T11:24:54;8.23;;;5.03;;
211;SDS011;16228;48.800;9.002;2023-06-26T11:27:30;4.80;;;4.50;;
211;SDS011;16228;48.800;9.002;2023-06-26T11:29:58;5.03;;;4.35;;
211;SDS011;16228;48.800;9.002;2023-06-26T11:32:26;4.90;;;4.50;;
211;SDS011;16228;48.800;9.002;2023-06-26T11:34:55;7.18;;;5.15;;
211;SDS011;16228;48.800;9.002;2023-06-26T11:37:23;6.25;;;5.65;;
211;SDS011;16228;48.800;9.002;2023-06-26T11:39:51;5.93;;;5.32;;
211;SDS011;16228;48.800;9.002;2023-06-26T11:42:19;5.93;;;5.25;;
211;SDS011;16228;48.800;9.002;2023-06-26T11:44:46;5.38;;;4.88;;
211;SDS011;16228;48.800;9.002;2023-06-26T11:47:14;5.47;;;4.97;;
211;SDS011;16228;48.800;9.002;2023-06-26T11:49:43;6.88;;;4.85;;
211;SDS011;16228;48.800;9.002;2023-06-26T11:52:12;5.90;;;4.88;;
211;SDS011;16228;48.800;9.002;2023-06-26T11:54:39;5.32;;;4.63;;
211;SDS011;16228;48.800;9.002;2023-06-26T11:57:07;5.70;;;5.30;;
211;SDS011;16228;48.800;9.002;2023-06-26T11:59:40;5.18;;;4.78;;
211;SDS011;16228;48.800;9.002;2023-06-26T12:02:08;5.95;;;4.80;;
211;SDS011;16228;48.800;9.002;2023-06-26T12:04:36;5.30;;;4.80;;
211;SDS011;16228;48.800;9.002;2023-06-26T12:07:05;6.43;;;5.90;;
211;SDS011;16228;48.800;9.002;2023-06-26T12:09:39;6.70;;;5.40;;
211;SDS011;16228;48.800;9.002;2023-06-26T12:12:08;5.03;;;4.63;;
211;SDS011;16228;48.800;9.002;2023-06-26T12:14:36;7.05;;;5.57;;
211;SDS011;16228;48.800;9.002;2023-06-26T12:17:04;5.60;;;5.10;;
211;SDS011;16228;48.800;9.002;2023-06-26T12:19:33;7.15;;;5.13;;
211;SDS011;16228;48.800;9.002;2023-06-26T12:22:05;5.03;;;4.60;;
211;SDS011;16228;48.800;9.002;2023-06-26T12:24:35;5.20;;;4.70;;
211;SDS011;16228;48.800;9.002;2023-06-26T12:27:07;5.57;;;5.07;;
211;SDS011;16228;48.800;9.002;2023-06-26T12:29:38;5.20;;;4.78;;
211;SDS011;16228;48.800;9.002;2023-06-26T12:32:10;6.07;;;5.45;;
211;SDS011;16228;48.800;9.002;2023-06-26T12:34:40;5.03;;;4.53;;
211;SDS011;16228;48.800;9.002;2023-06-26T12:37:08;5.40;;;5.00;;
211;SDS011;16228;48.800;9.002;2023-06-26T12:39:46;5.15;;;4.55;;
211;SDS011;16228;48.800;9.002;2023-06-26T12:42:16;7.63;;;5.80;;
211;SDS011;16228;48.800;9.002;2023-06-26T12:44:44;5.78;;;5.38;;
211;SDS011;16228;48.800;9.002;2023-06-26T12:47:13;5.93;;;5.32;;
211;SDS011;16228;48.800;9.002;2023-06-26T12:49:41;6.15;;;5.57;;
211;SDS011;16228;48.800;9.002;2023-06-26T12:52:10;5.32;;;4.82;;
211;SDS011;16228;48.800;9.002;2023-06-26T12:54:38;5.55;;;5.07;;
211;SDS011;16228;48.800;9.002;2023-06-26T12:57:07;5.40;;;4.90;;
211;SDS011;16228;48.800;9.002;2023-06-26T12:59:36;5.38;;;4.97;;
211;SDS011;16228;48.800;9.002;2023-06-26T13:02:04;5.30;;;4.88;;
211;SDS011;16228;48.800;9.002;2023-06-26T13:04:32;6.22;;;4.72;;
211;SDS011;16228;48.800;9.002;2023-06-26T13:07:00;5.22;;;4.80;;
211;SDS011;16228;48.800;9.002;2023-06-26T13:09:31;5.13;;;4.28;;
211;SDS011;16228;48.800;9.002;2023-06-26T13:12:00;4.55;;;4.25;;
211;SDS011;16228;48.800;9.002;2023-06-26T13:14:28;5.40;;;4.90;;
211;SDS011;16228;48.800;9.002;2023-06-26T13:16:57;6.35;;;5.07;;
211;SDS011;16228;48.800;9.002;2023-06-26T13:19:24;5.07;;;4.45;;
211;SDS011;16228;48.800;9.002;2023-06-26T13:21:52;5.22;;;4.72;;
211;SDS011;16228;48.800;9.002;2023-06-26T13:24:19;4.72;;;4.40;;
211;SDS011;16228;48.800;9.002;2023-06-26T13:26:46;5.25;;;4.82;;
211;SDS011;16228;48.800;9.002;2023-06-26T13:29:13;5.63;;;4.70;;
211;SDS011;16228;48.800;9.002;2023-06-26T13:31:41;5.18;;;4.47;;
211;SDS011;16228;48.800;9.002;2023-06-26T13:34:09;5.18;;;4.32;;
211;SDS011;16228;48.800;9.002;2023-06-26T13:36:47;5.82;;;4.25;;
211;SDS011;16228;48.800;9.002;2023-06-26T13:39:14;5.80;;;5.20;;
211;SDS011;16228;48.800;9.002;2023-06-26T13:41:41;5.32;;;4.30;;
211;SDS011;16228;48.800;9.002;2023-06-26T13:44:09;4.65;;;4.25;;
211;SDS011;16228;48.800;9.002;2023-06-26T13:46:36;4.90;;;3.95;;
211;SDS011;16228;48.800;9.002;2023-06-26T13:49:03;8.73;;;4.53;;
211;SDS011;16228;48.800;9.002;2023-06-26T13:51:32;5.88;;;4.00;;
211;SDS011;16228;48.800;9.002;2023-06-26T13:53:59;4.15;;;3.83;;
211;SDS011;16228;48.800;9.002;2023-06-26T13:56:26;7.00;;;4.15;;
211;SDS011;16228;48.800;9.002;2023-06-26T13:58:55;4.95;;;4.07;;
211;SDS011;16228;48.800;9.002;2023-06-26T14:01:23;4.50;;;3.70;;
211;SDS011;16228;48.800;9.002;2023-06-26T14:03:50;4.95;;;4.03;;
211;SDS011;16228;48.800;9.002;2023-06-26T14:06:18;4.35;;;3.95;;
211;SDS011;16228;48.800;9.002;2023-06-26T14:08:46;4.60;;;4.20;;
211;SDS011;16228;48.800;9.002;2023-06-26T14:11:13;4.37;;;3.67;;
211;SDS011;16228;48.800;9.002;2023-06-26T14:13:41;4.13;;;3.73;;
211;SDS011;16228;48.800;9.002;2023-06-26T14:16:08;4.27;;;3.80;;
211;SDS011;16228;48.800;9.002;2023-06-26T14:18:35;3.80;;;3.47;;
211;SDS011;16228;48.800;9.002;2023-06-26T14:21:03;6.50;;;3.70;;
211;SDS011;16228;48.800;9.002;2023-06-26T14:23:30;3.50;;;3.20;;
211;SDS011;16228;48.800;9.002;2023-06-26T14:25:59;3.90;;;3.60;;
211;SDS011;16228;48.800;9.002;2023-06-26T14:28:26;4.50;;;4.10;;
211;SDS011;16228;48.800;9.002;2023-06-26T14:30:53;4.00;;;3.70;;
211;SDS011;16228;48.800;9.002;2023-06-26T14:33:20;4.90;;;3.60;;
211;SDS011;16228;48.800;9.002;2023-06-26T14:35:50;4.70;;;3.37;;
211;SDS011;16228;48.800;9.002;2023-06-26T14:38:17;4.57;;;3.87;;
211;SDS011;16228;48.800;9.002;2023-06-26T14:40:45;5.47;;;3.77;;
211;SDS011;16228;48.800;9.002;2023-06-26T14:43:13;4.63;;;4.00;;
211;SDS011;16228;48.800;9.002;2023-06-26T14:45:41;4.47;;;3.40;;
211;SDS011;16228;48.800;9.002;2023-06-26T14:48:08;5.03;;;3.60;;
211;SDS011;16228;48.800;9.002;2023-06-26T14:50:35;4.33;;;3.93;;
211;SDS011;16228;48.800;9.002;2023-06-26T14:53:02;4.70;;;3.50;;
211;SDS011;16228;48.800;9.002;2023-06-26T14:55:30;3.60;;;3.30;;
211;SDS011;16228;48.800;9.002;2023-06-26T14:57:57;4.93;;;4.33;;
211;SDS011;16228;48.800;9.002;2023-06-26T15:00:27;5.47;;;4.07;;
211;SDS011;16228;48.800;9.002;2023-06-26T15:02:54;8.47;;;4.30;;
211;SDS011;16228;48.800;9.002;2023-06-26T15:05:23;5.63;;;5.03;;
211;SDS011;16228;48.800;9.002;2023-06-26T15:07:51;6.00;;;4.73;;
211;SDS011;16228;48.800;9.002;2023-06-26T15:10:18;5.23;;;4.00;;
211;SDS011;16228;48.800;9.002;2023-06-26T15:12:46;6.30;;;4.90;;
211;SDS011;16228;48.800;9.002;2023-06-26T15:15:14;5.90;;;4.47;;
211;SDS011;16228;48.800;9.002;2023-06-26T15:17:44;6.43;;;4.53;;
211;SDS011;16228;48.800;9.002;2023-06-26T15:20:11;7.57;;;6.20;;
211;SDS011;16228;48.800;9.002;2023-06-26T15:22:38;6.53;;;5.00;;